Karmel — 9HA2896 — position and weather

sailwx.info

Track history (hours):
 
Tides and Currents Weather Stations Pressure Air Temp Water Temp Dewpoint Dewpoint Depression Visibility Wind Speed Wind Dir Waves Ship Positions

Karmel

Last reported at 2015-Apr-22 03:32 UTC. Time now 2015-Apr-22 03:52 UTC.
Position N 52°24' E 004°47'.

Length 90 m; draft 3.4 m.

Type: Cargo ship. MMSI: 256632000.

Date/timePositionNaut miles runAvg speedWind from/ knotsBaromVisibWave heightAir tempDewpointWater temp
2015-Apr-22 03:32N 52°24' E 004°47'0 0.0
2015-Apr-22 02:29N 52°24' E 004°47'0 0.0
2015-Apr-22 01:32N 52°24' E 004°47'0 0.0
2015-Apr-22 00:16N 52°24' E 004°47'0 0.0
2015-Apr-21 23:31N 52°24' E 004°47'0 0.0
2015-Apr-21 22:22N 52°24' E 004°47'0 0.0
2015-Apr-21 21:31N 52°24' E 004°47'0 0.0
2015-Apr-21 20:31N 52°24' E 004°47'0 0.0
2015-Apr-21 19:25N 52°24' E 004°47'0 0.0
2015-Apr-21 18:28N 52°24' E 004°47'0 0.0
2015-Apr-21 17:28N 52°24' E 004°47'0 0.0
2015-Apr-21 16:25N 52°24' E 004°47'0 0.0
2015-Apr-21 15:31N 52°24' E 004°47'0 0.0
2015-Apr-21 14:31N 52°24' E 004°47'0 0.0
2015-Apr-21 13:29N 52°24' E 004°47'0 0.0
2015-Apr-21 12:29N 52°24' E 004°47'0 0.0
2015-Apr-21 11:26N 52°24' E 004°47'0 0.0
2015-Apr-21 10:32N 52°24' E 004°47'0 0.0
2015-Apr-21 09:32N 52°24' E 004°47'0 0.0
2015-Apr-21 08:26N 52°24' E 004°47'0 0.0
2015-Apr-21 07:08N 52°24' E 004°47'0 0.0
2015-Apr-21 06:26N 52°24' E 004°47'0 0.0
2015-Apr-21 05:20N 52°24' E 004°47'0 0.0
2015-Apr-21 04:32N 52°24' E 004°47'0 0.0
2015-Apr-21 03:32N 52°24' E 004°47'0 0.0
2015-Apr-21 02:29N 52°24' E 004°47'0 0.2
2015-Apr-21 01:33N 52°24' E 004°47'3 2.9
2015-Apr-21 00:32N 52°24' E 004°52'0 0.0
2015-Apr-20 23:32N 52°24' E 004°52'0 0.0
2015-Apr-20 22:32N 52°24' E 004°52'0 0.0
2015-Apr-20 21:32N 52°24' E 004°52'0 0.0
2015-Apr-20 20:26N 52°24' E 004°52'0 0.0
2015-Apr-20 19:32N 52°24' E 004°52'0 0.0
2015-Apr-20 18:32N 52°24' E 004°52'0 0.0
2015-Apr-20 17:32N 52°24' E 004°52'0 0.0
2015-Apr-20 16:32N 52°24' E 004°52'0 0.0
2015-Apr-20 15:29N 52°24' E 004°52'0 0.0
2015-Apr-20 14:30N 52°24' E 004°52'0 0.0
2015-Apr-20 13:32N 52°24' E 004°52'0 0.0
2015-Apr-20 12:29N 52°24' E 004°52'0 0.0
2015-Apr-20 11:32N 52°24' E 004°52'0 0.0
2015-Apr-20 10:32N 52°24' E 004°52'0 0.0
2015-Apr-20 09:33N 52°24' E 004°52'0 0.0
2015-Apr-20 08:33N 52°24' E 004°52'0 0.0
2015-Apr-20 07:33N 52°24' E 004°52'0 0.0
2015-Apr-20 06:31N 52°24' E 004°52'0 0.0
2015-Apr-20 05:32N 52°24' E 004°52'0 0.0
2015-Apr-20 04:33N 52°24' E 004°52'0 0.0
2015-Apr-20 03:30N 52°24' E 004°52'0 0.0
2015-Apr-20 02:33N 52°24' E 004°52'0 0.0
2015-Apr-20 01:32N 52°24' E 004°52'0 0.0
2015-Apr-20 00:32N 52°24' E 004°52'0 0.0
2015-Apr-19 23:32N 52°24' E 004°52'0 0.0
2015-Apr-19 22:32N 52°24' E 004°52'0 0.0
2015-Apr-19 21:32N 52°24' E 004°52'0 0.0
2015-Apr-19 20:32N 52°24' E 004°52'0 0.0
2015-Apr-19 19:29N 52°24' E 004°52'0 0.0
2015-Apr-19 18:32N 52°24' E 004°52'0 0.0
2015-Apr-19 17:32N 52°24' E 004°52'0 0.0
2015-Apr-19 16:33N 52°24' E 004°52'0 0.0
2015-Apr-19 15:30N 52°24' E 004°52'0 0.0
2015-Apr-19 14:32N 52°24' E 004°52'0 0.0
2015-Apr-19 13:32N 52°24' E 004°52'0 0.0
2015-Apr-19 12:23N 52°24' E 004°52'0 0.0
2015-Apr-19 11:32N 52°24' E 004°52'0 0.0
2015-Apr-19 10:32N 52°24' E 004°52'0 0.0
2015-Apr-19 09:31N 52°24' E 004°52'0 0.2
2015-Apr-19 08:34N 52°24' E 004°52'8 7.7
2015-Apr-19 07:33N 52°27' E 004°40'4 4.2
2015-Apr-19 06:33N 52°28' E 004°34'52 9.9
2015-Apr-19 01:16N 52°10' E 003°13'810.5
2015-Apr-19 00:29N 52°04' E 003°04'18 9.1
2015-Apr-18 22:33N 51°50' E 002°45'7 7.5
2015-Apr-18 21:33N 51°45' E 002°38'7 6.9
2015-Apr-18 20:33N 51°39' E 002°31'6 6.3
2015-Apr-18 19:33N 51°34' E 002°24'5 5.3
2015-Apr-18 18:33N 51°30' E 002°19'6 6.1
2015-Apr-18 17:32N 51°25' E 002°13'7 6.7
2015-Apr-18 16:34N 51°19' E 002°08'7 7.0
2015-Apr-18 15:33N 51°14' E 002°01'9 9.2
2015-Apr-18 14:33N 51°08' E 001°50'1010.1
2015-Apr-18 13:33N 51°00' E 001°39'155 8.0
2015-Apr-17 18:13N 50°13' W 002°14'711.2
2015-Apr-17 17:33N 50°12' W 002°25'9 9.3
2015-Apr-17 16:33N 50°11' W 002°40'7 7.4
2015-Apr-17 15:33N 50°11' W 002°51'7 6.6
2015-Apr-17 14:33N 50°10' W 003°02'7 5.8
2015-Apr-17 13:23N 50°08' W 003°12'5 5.5
2015-Apr-17 12:33N 50°07' W 003°19'6 5.7
2015-Apr-17 11:33N 50°05' W 003°27'184 8.3
2015-Apr-16 13:30N 50°29' W 008°13'20 9.5
2015-Apr-16 11:21N 50°42' W 008°38'18 9.4
2015-Apr-16 09:26N 50°53' W 009°00'11 9.5
2015-Apr-16 08:18N 50°59' W 009°14'8 9.9
2015-Apr-16 07:30N 51°04' W 009°24'9 9.8
2015-Apr-16 06:33N 51°10' W 009°36'1010.1
2015-Apr-16 05:33N 51°16' W 009°48'1110.9
2015-Apr-16 04:33N 51°23' W 010°02'1411.4
2015-Apr-16 03:17N 51°32' W 010°20'2211.0
2015-Apr-16 01:20N 51°50' W 010°38'810.6
2015-Apr-16 00:33N 51°58' W 010°41'9 8.6
2015-Apr-15 23:30N 52°07' W 010°39'1010.0
2015-Apr-15 22:33N 52°13' W 010°27'1210.2
2015-Apr-15 21:20N 52°21' W 010°11'1110.7
2015-Apr-15 20:18N 52°27' W 009°56'  
Track history (hours):
 
Tides and Currents Weather Stations Pressure Air Temp Water Temp Dewpoint Dewpoint Depression Visibility Wind Speed Wind Dir Waves Ship Positions

Karmel

Last reported at 2015-Apr-22 03:32 UTC. Time now 2015-Apr-22 03:52 UTC.
Position N 52°24' E 004°47'.

Length 90 m; draft 3.4 m.

Type: Cargo ship. MMSI: 256632000.

Date/timePositionNaut miles runAvg speedWind from/ knotsBaromVisibWave heightAir tempDewpointWater temp
2015-Apr-22 03:32N 52°24' E 004°47'0 0.0
2015-Apr-22 02:29N 52°24' E 004°47'0 0.0
2015-Apr-22 01:32N 52°24' E 004°47'0 0.0
2015-Apr-22 00:16N 52°24' E 004°47'0 0.0
2015-Apr-21 23:31N 52°24' E 004°47'0 0.0
2015-Apr-21 22:22N 52°24' E 004°47'0 0.0
2015-Apr-21 21:31N 52°24' E 004°47'0 0.0
2015-Apr-21 20:31N 52°24' E 004°47'0 0.0
2015-Apr-21 19:25N 52°24' E 004°47'0 0.0
2015-Apr-21 18:28N 52°24' E 004°47'0 0.0
2015-Apr-21 17:28N 52°24' E 004°47'0 0.0
2015-Apr-21 16:25N 52°24' E 004°47'0 0.0
2015-Apr-21 15:31N 52°24' E 004°47'0 0.0
2015-Apr-21 14:31N 52°24' E 004°47'0 0.0
2015-Apr-21 13:29N 52°24' E 004°47'0 0.0
2015-Apr-21 12:29N 52°24' E 004°47'0 0.0
2015-Apr-21 11:26N 52°24' E 004°47'0 0.0
2015-Apr-21 10:32N 52°24' E 004°47'0 0.0
2015-Apr-21 09:32N 52°24' E 004°47'0 0.0
2015-Apr-21 08:26N 52°24' E 004°47'0 0.0
2015-Apr-21 07:08N 52°24' E 004°47'0 0.0
2015-Apr-21 06:26N 52°24' E 004°47'0 0.0
2015-Apr-21 05:20N 52°24' E 004°47'0 0.0
2015-Apr-21 04:32N 52°24' E 004°47'0 0.0
2015-Apr-21 03:32N 52°24' E 004°47'0 0.0
2015-Apr-21 02:29N 52°24' E 004°47'0 0.2
2015-Apr-21 01:33N 52°24' E 004°47'3 2.9
2015-Apr-21 00:32N 52°24' E 004°52'0 0.0
2015-Apr-20 23:32N 52°24' E 004°52'0 0.0
2015-Apr-20 22:32N 52°24' E 004°52'0 0.0
2015-Apr-20 21:32N 52°24' E 004°52'0 0.0
2015-Apr-20 20:26N 52°24' E 004°52'0 0.0
2015-Apr-20 19:32N 52°24' E 004°52'0 0.0
2015-Apr-20 18:32N 52°24' E 004°52'0 0.0
2015-Apr-20 17:32N 52°24' E 004°52'0 0.0
2015-Apr-20 16:32N 52°24' E 004°52'0 0.0
2015-Apr-20 15:29N 52°24' E 004°52'0 0.0
2015-Apr-20 14:30N 52°24' E 004°52'0 0.0
2015-Apr-20 13:32N 52°24' E 004°52'0 0.0
2015-Apr-20 12:29N 52°24' E 004°52'0 0.0
2015-Apr-20 11:32N 52°24' E 004°52'0 0.0
2015-Apr-20 10:32N 52°24' E 004°52'0 0.0
2015-Apr-20 09:33N 52°24' E 004°52'0 0.0
2015-Apr-20 08:33N 52°24' E 004°52'0 0.0
2015-Apr-20 07:33N 52°24' E 004°52'0 0.0
2015-Apr-20 06:31N 52°24' E 004°52'0 0.0
2015-Apr-20 05:32N 52°24' E 004°52'0 0.0
2015-Apr-20 04:33N 52°24' E 004°52'0 0.0
2015-Apr-20 03:30N 52°24' E 004°52'0 0.0
2015-Apr-20 02:33N 52°24' E 004°52'0 0.0
2015-Apr-20 01:32N 52°24' E 004°52'0 0.0
2015-Apr-20 00:32N 52°24' E 004°52'0 0.0
2015-Apr-19 23:32N 52°24' E 004°52'0 0.0
2015-Apr-19 22:32N 52°24' E 004°52'0 0.0
2015-Apr-19 21:32N 52°24' E 004°52'0 0.0
2015-Apr-19 20:32N 52°24' E 004°52'0 0.0
2015-Apr-19 19:29N 52°24' E 004°52'0 0.0
2015-Apr-19 18:32N 52°24' E 004°52'0 0.0
2015-Apr-19 17:32N 52°24' E 004°52'0 0.0
2015-Apr-19 16:33N 52°24' E 004°52'0 0.0
2015-Apr-19 15:30N 52°24' E 004°52'0 0.0
2015-Apr-19 14:32N 52°24' E 004°52'0 0.0
2015-Apr-19 13:32N 52°24' E 004°52'0 0.0
2015-Apr-19 12:23N 52°24' E 004°52'0 0.0
2015-Apr-19 11:32N 52°24' E 004°52'0 0.0
2015-Apr-19 10:32N 52°24' E 004°52'0 0.0
2015-Apr-19 09:31N 52°24' E 004°52'0 0.2
2015-Apr-19 08:34N 52°24' E 004°52'8 7.7
2015-Apr-19 07:33N 52°27' E 004°40'4 4.2
2015-Apr-19 06:33N 52°28' E 004°34'52 9.9
2015-Apr-19 01:16N 52°10' E 003°13'810.5
2015-Apr-19 00:29N 52°04' E 003°04'18 9.1
2015-Apr-18 22:33N 51°50' E 002°45'7 7.5
2015-Apr-18 21:33N 51°45' E 002°38'7 6.9
2015-Apr-18 20:33N 51°39' E 002°31'6 6.3
2015-Apr-18 19:33N 51°34' E 002°24'5 5.3
2015-Apr-18 18:33N 51°30' E 002°19'6 6.1
2015-Apr-18 17:32N 51°25' E 002°13'7 6.7
2015-Apr-18 16:34N 51°19' E 002°08'7 7.0
2015-Apr-18 15:33N 51°14' E 002°01'9 9.2
2015-Apr-18 14:33N 51°08' E 001°50'1010.1
2015-Apr-18 13:33N 51°00' E 001°39'155 8.0
2015-Apr-17 18:13N 50°13' W 002°14'711.2
2015-Apr-17 17:33N 50°12' W 002°25'9 9.3
2015-Apr-17 16:33N 50°11' W 002°40'7 7.4
2015-Apr-17 15:33N 50°11' W 002°51'7 6.6
2015-Apr-17 14:33N 50°10' W 003°02'7 5.8
2015-Apr-17 13:23N 50°08' W 003°12'5 5.5
2015-Apr-17 12:33N 50°07' W 003°19'6 5.7
2015-Apr-17 11:33N 50°05' W 003°27'184 8.3
2015-Apr-16 13:30N 50°29' W 008°13'20 9.5
2015-Apr-16 11:21N 50°42' W 008°38'18 9.4
2015-Apr-16 09:26N 50°53' W 009°00'11 9.5
2015-Apr-16 08:18N 50°59' W 009°14'8 9.9
2015-Apr-16 07:30N 51°04' W 009°24'9 9.8
2015-Apr-16 06:33N 51°10' W 009°36'1010.1
2015-Apr-16 05:33N 51°16' W 009°48'1110.9
2015-Apr-16 04:33N 51°23' W 010°02'1411.4
2015-Apr-16 03:17N 51°32' W 010°20'2211.0
2015-Apr-16 01:20N 51°50' W 010°38'810.6
2015-Apr-16 00:33N 51°58' W 010°41'9 8.6
2015-Apr-15 23:30N 52°07' W 010°39'1010.0
2015-Apr-15 22:33N 52°13' W 010°27'1210.2
2015-Apr-15 21:20N 52°21' W 010°11'1110.7
2015-Apr-15 20:18N 52°27' W 009°56'  

Dump ship's entire track history